Time;durP1;ratioP1;P1;durP2;ratioP2;P2;SDS_P1;SDS_P2;PMS_P1;PMS_P2;Temp;Humidity;BMP_temperature;BMP_pressure;BME280_temperature;BME280_humidity;BME280_pressure;Samples;Min_cycle;Max_cycle;Signal;HPM_P1;HPM_P2
2022/08/20 00:00:54;;;;;;;9.18;3.38;;;;;;;28.72;46.27;98498.88;6159961;23;20233;-94
2022/08/20 00:03:26;;;;;;;5.97;3.20;;;;;;;28.66;46.32;98497.03;6160640;23;20162;-93
2022/08/20 00:05:59;;;;;;;5.93;3.17;;;;;;;28.64;45.39;98489.16;6160296;23;20178;-94
2022/08/20 00:08:25;;;;;;;7.68;3.53;;;;;;;28.65;45.54;98488.09;6160204;23;20586;-93
2022/08/20 00:10:51;;;;;;;8.38;2.95;;;;;;;28.61;45.73;98486.84;6160078;23;20170;-94
2022/08/20 00:13:23;;;;;;;4.80;2.42;;;;;;;28.55;45.70;98491.22;6162019;23;20155;-93
2022/08/20 00:15:49;;;;;;;6.25;2.85;;;;;;;28.46;46.01;98491.63;6161952;23;20150;-94
2022/08/20 00:18:15;;;;;;;9.20;3.92;;;;;;;28.46;45.75;98492.44;6162157;23;20154;-93
2022/08/20 00:20:44;;;;;;;6.07;2.80;;;;;;;28.44;46.11;98493.69;6162762;23;20642;-93
2022/08/20 00:23:10;;;;;;;6.22;3.65;;;;;;;28.31;46.39;98489.16;6187998;23;20609;-93
2022/08/20 00:25:36;;;;;;;6.45;3.05;;;;;;;28.26;46.72;98488.97;6161862;23;20182;-93
2022/08/20 00:28:02;;;;;;;9.10;3.30;;;;;;;28.21;46.67;98491.47;6149590;23;20209;-94
2022/08/20 00:30:31;;;;;;;4.25;2.58;;;;;;;28.12;47.15;98490.00;6161852;23;20166;-93
2022/08/20 00:33:10;;;;;;;5.82;2.83;;;;;;;28.09;47.12;98478.81;6161835;23;20166;-94
2022/08/20 00:35:39;;;;;;;6.15;3.25;;;;;;;28.05;46.81;98489.19;6161739;23;20494;-93
2022/08/20 00:38:05;;;;;;;5.95;2.85;;;;;;;28.08;47.06;98486.06;6161620;23;20158;-93
2022/08/20 00:40:37;;;;;;;6.03;3.70;;;;;;;28.02;47.19;98476.13;6161734;23;20177;-94
2022/08/20 00:43:05;;;;;;;6.88;3.45;;;;;;;28.00;46.75;98475.47;6161797;23;20165;-94
2022/08/20 00:45:32;;;;;;;5.18;3.00;;;;;;;27.90;47.50;98469.66;6161544;23;20186;-93
2022/08/20 00:47:58;;;;;;;5.68;2.75;;;;;;;27.86;47.30;98463.00;6161795;23;20158;-94
2022/08/20 00:50:33;;;;;;;8.05;3.13;;;;;;;27.77;47.86;98466.97;6161653;23;20150;-95
2022/08/20 00:53:01;;;;;;;6.38;3.47;;;;;;;27.70;48.76;98468.81;6217693;23;20601;-93
2022/08/20 00:55:28;;;;;;;6.53;3.47;;;;;;;27.70;48.71;98474.22;6191515;23;20146;-93
2022/08/20 00:57:59;;;;;;;5.97;3.53;;;;;;;27.71;49.43;98460.53;6192127;23;20157;-93
2022/08/20 01:00:50;;;;;;;7.47;3.15;;;;;;;27.69;49.65;98468.00;6191471;23;20142;-93
2022/08/20 01:03:19;;;;;;;7.30;3.20;;;;;;;27.58;50.29;98465.91;6186012;23;20158;-94
2022/08/20 01:05:48;;;;;;;7.10;3.05;;;;;;;27.50;49.95;98462.56;6191322;23;20177;-93
2022/08/20 01:08:17;;;;;;;7.97;3.95;;;;;;;27.43;50.18;98465.25;6192109;23;20603;-95
2022/08/20 01:10:44;;;;;;;7.18;2.90;;;;;;;27.47;49.51;98473.72;6191368;23;20153;-94
2022/08/20 01:13:16;;;;;;;5.53;2.83;;;;;;;27.38;49.16;98460.44;6191313;23;20251;-94
2022/08/20 01:15:44;;;;;;;6.97;3.25;;;;;;;27.46;48.37;98462.16;6191265;23;20146;-94
2022/08/20 01:18:20;;;;;;;5.22;3.17;;;;;;;27.52;48.32;98461.31;6191264;23;20157;-94
2022/08/20 01:20:51;;;;;;;5.85;3.45;;;;;;;27.52;48.41;98455.09;6191292;23;20145;-94
2022/08/20 01:23:29;;;;;;;5.60;3.53;;;;;;;27.49;49.11;98450.16;6190901;23;20512;-96
2022/08/20 01:26:28;;;;;;;6.15;3.38;;;;;;;27.44;49.35;98448.88;6191002;23;20182;-94
2022/08/20 01:29:01;;;;;;;10.15;3.63;;;;;;;27.37;50.23;98453.41;6191241;23;20209;-93
2022/08/20 01:31:29;;;;;;;7.35;3.58;;;;;;;27.30;51.12;98449.88;6191110;23;20170;-94
2022/08/20 01:33:57;;;;;;;9.20;3.35;;;;;;;27.25;51.23;98444.25;6191192;23;20161;-94
2022/08/20 01:36:26;;;;;;;5.82;3.30;;;;;;;27.14;51.81;98447.56;6191111;23;20146;-95
2022/08/20 01:38:52;;;;;;;6.97;3.53;;;;;;;27.18;51.71;98447.97;6190975;23;20172;-95
2022/08/20 01:41:35;;;;;;;7.32;3.67;;;;;;;27.12;51.73;98449.59;6191090;23;20157;-94
2022/08/20 01:44:01;;;;;;;9.53;3.63;;;;;;;27.09;52.12;98450.03;6191122;23;20177;-94
2022/08/20 01:46:31;;;;;;;6.13;3.43;;;;;;;27.09;52.15;98447.34;6190810;23;20186;-95
2022/08/20 01:48:58;;;;;;;5.95;3.90;;;;;;;27.03;52.74;98450.81;6191895;23;20149;-94
2022/08/20 01:51:28;;;;;;;7.32;3.78;;;;;;;27.00;52.05;98453.06;6190953;23;20158;-94
2022/08/20 01:53:58;;;;;;;4.78;2.80;;;;;;;26.97;50.47;98448.94;6190945;23;20154;-95
2022/08/20 01:56:28;;;;;;;5.40;3.38;;;;;;;26.84;49.36;98440.81;6190985;23;20142;-94
2022/08/20 01:58:56;;;;;;;8.82;3.90;;;;;;;26.88;49.16;98458.22;6190782;23;20161;-94
2022/08/20 02:01:25;;;;;;;5.37;3.23;;;;;;;26.85;48.81;98453.22;6190768;23;20154;-93
2022/08/20 02:03:52;;;;;;;6.22;3.92;;;;;;;26.81;48.46;98449.25;6190787;23;20161;-93
2022/08/20 02:06:23;;;;;;;7.70;3.22;;;;;;;26.81;47.86;98449.25;6190790;23;20189;-93
2022/08/20 02:08:50;;;;;;;7.03;3.27;;;;;;;26.81;47.70;98447.41;6190775;23;20233;-93
2022/08/20 02:11:15;;;;;;;7.55;3.42;;;;;;;26.81;47.09;98450.09;6190867;23;20158;-93
2022/08/20 02:13:41;;;;;;;6.23;3.20;;;;;;;26.75;47.93;98447.38;6190643;23;20180;-93
2022/08/20 02:16:07;;;;;;;5.60;3.00;;;;;;;26.61;48.09;98454.53;6190603;23;20150;-93
2022/08/20 02:18:32;;;;;;;6.90;3.50;;;;;;;26.49;48.91;98463.34;6190628;23;20165;-93
2022/08/20 02:20:58;;;;;;;5.30;3.00;;;;;;;26.43;48.66;98454.22;6190679;23;20518;-93
2022/08/20 02:23:24;;;;;;;5.03;2.73;;;;;;;26.43;48.84;98448.84;6190686;23;20153;-94
2022/08/20 02:25:50;;;;;;;7.23;3.47;;;;;;;26.37;48.74;98446.09;6190556;23;20200;-95
2022/08/20 02:28:19;;;;;;;5.53;3.40;;;;;;;26.24;49.34;98450.38;6190795;23;20149;-95
2022/08/20 02:30:48;;;;;;;5.83;2.97;;;;;;;26.20;49.52;98442.91;6190429;23;20319;-93
2022/08/20 02:33:16;;;;;;;6.37;3.30;;;;;;;26.28;48.80;98444.63;6190504;23;20153;-93
2022/08/20 02:35:45;;;;;;;10.63;3.70;;;;;;;26.27;49.35;98446.47;6190522;23;20157;-95
2022/08/20 02:38:11;;;;;;;7.47;2.97;;;;;;;26.33;49.27;98443.00;6190441;23;20659;-94
2022/08/20 02:40:37;;;;;;;5.53;3.23;;;;;;;26.32;50.04;98444.00;6190640;23;20154;-94
2022/08/20 02:43:03;;;;;;;11.07;4.07;;;;;;;26.23;50.51;98442.53;6190395;23;20150;-94
2022/08/20 02:45:36;;;;;;;6.77;3.43;;;;;;;26.19;50.75;98444.75;6190331;23;20189;-94
2022/08/20 02:48:02;;;;;;;7.07;3.67;;;;;;;26.11;50.71;98441.34;6190476;23;20220;-94
2022/08/20 02:50:29;;;;;;;5.67;3.47;;;;;;;26.08;50.95;98445.25;6190422;23;20158;-93
2022/08/20 02:52:55;;;;;;;8.10;3.37;;;;;;;26.06;50.89;98446.50;6190621;23;20488;-94
2022/08/20 02:55:21;;;;;;;10.53;4.10;;;;;;;26.00;50.44;98441.88;6190783;23;20267;-95
2022/08/20 02:57:47;;;;;;;6.27;3.70;;;;;;;25.87;50.89;98452.53;6190410;23;20228;-94
2022/08/20 03:00:17;;;;;;;6.97;3.17;;;;;;;25.82;50.63;98455.78;6190581;23;20237;-94
2022/08/20 03:02:44;;;;;;;5.57;3.37;;;;;;;25.80;51.25;98457.84;6191088;23;20146;-93
2022/08/20 03:05:11;;;;;;;6.77;3.60;;;;;;;25.81;50.84;98461.38;6190077;23;20219;-95
2022/08/20 03:07:52;;;;;;;5.93;3.00;;;;;;;25.77;50.91;98462.75;6190504;23;20150;-94
2022/08/20 03:10:23;;;;;;;6.47;3.87;;;;;;;25.76;51.01;98461.94;6190507;23;20142;-94
2022/08/20 03:12:49;;;;;;;5.77;3.67;;;;;;;25.65;51.72;98470.53;6190369;23;20142;-94
2022/08/20 03:15:15;;;;;;;5.63;3.03;;;;;;;25.54;52.23;98468.34;6190187;23;20177;-94
2022/08/20 03:17:40;;;;;;;6.77;3.57;;;;;;;25.57;51.88;98467.97;6190185;23;20239;-95
2022/08/20 03:20:07;;;;;;;6.93;3.30;;;;;;;25.65;51.42;98467.84;6191515;23;20161;-94
2022/08/20 03:22:33;;;;;;;9.17;3.47;;;;;;;25.67;52.27;98473.84;6190269;23;20162;-94
2022/08/20 03:24:59;;;;;;;6.60;3.17;;;;;;;25.53;53.38;98472.88;6190230;23;20161;-94
2022/08/20 03:27:24;;;;;;;7.50;4.00;;;;;;;25.54;52.86;98465.66;6190101;23;20189;-93
2022/08/20 03:29:50;;;;;;;5.70;3.43;;;;;;;25.57;53.32;98466.13;6189993;23;20286;-95
2022/08/20 03:32:16;;;;;;;6.60;3.80;;;;;;;25.50;53.98;98472.41;6190293;23;20235;-94
2022/08/20 03:34:41;;;;;;;8.13;4.13;;;;;;;25.44;54.49;98479.38;6216474;23;20224;-95
2022/08/20 03:37:06;;;;;;;9.40;3.80;;;;;;;25.44;53.86;98475.84;6190206;23;20146;-94
2022/08/20 03:39:32;;;;;;;8.80;3.53;;;;;;;25.50;53.52;98475.94;6190067;23;20483;-95
2022/08/20 03:41:58;;;;;;;6.10;3.50;;;;;;;25.42;54.21;98475.22;6190745;23;20161;-94
2022/08/20 03:44:25;;;;;;;8.03;4.10;;;;;;;25.40;54.62;98467.34;6190147;23;20150;-94
2022/08/20 03:46:51;;;;;;;7.33;4.03;;;;;;;25.47;54.76;98464.78;6191147;23;20227;-95
2022/08/20 03:49:16;;;;;;;6.47;3.77;;;;;;;25.47;55.00;98478.19;6192109;23;20240;-94
2022/08/20 03:51:42;;;;;;;7.47;3.93;;;;;;;25.40;54.79;98477.22;6192059;23;20219;-95
2022/08/20 03:54:07;;;;;;;7.03;3.67;;;;;;;25.34;54.26;98489.56;6192094;23;20157;-93
2022/08/20 03:56:32;;;;;;;10.77;3.73;;;;;;;25.32;53.68;98490.75;6191971;23;20469;-94
2022/08/20 03:58:58;;;;;;;6.67;3.70;;;;;;;25.27;53.67;98487.81;6192032;23;20157;-92
2022/08/20 04:01:23;;;;;;;12.70;6.70;;;;;;;25.22;53.18;98485.72;6192050;23;20150;-94
2022/08/20 04:03:49;;;;;;;13.27;9.30;;;;;;;25.26;52.49;98480.81;6192373;23;20158;-94
2022/08/20 04:06:15;;;;;;;16.00;8.60;;;;;;;25.32;52.37;98485.41;6192143;23;20193;-93
2022/08/20 04:08:41;;;;;;;10.70;7.67;;;;;;;25.33;52.92;98487.06;6191942;23;20164;-93
2022/08/20 04:11:07;;;;;;;12.60;6.67;;;;;;;25.26;52.80;98488.88;6191927;23;20225;-94
2022/08/20 04:13:33;;;;;;;10.30;7.00;;;;;;;25.29;52.93;98489.28;6192071;23;20161;-94
2022/08/20 04:16:07;;;;;;;8.87;6.50;;;;;;;25.29;52.84;98488.50;6192022;23;20179;-94
2022/08/20 04:18:35;;;;;;;14.40;7.00;;;;;;;25.30;53.26;98484.75;6191980;23;20156;-93
2022/08/20 04:21:03;;;;;;;9.00;5.77;;;;;;;25.36;52.97;98489.38;6191765;23;20319;-95
2022/08/20 04:23:30;;;;;;;7.77;4.90;;;;;;;25.41;53.09;98486.97;6191793;23;20265;-94
2022/08/20 04:25:56;;;;;;;8.70;5.33;;;;;;;25.41;53.83;98479.75;6191764;23;20181;-94
2022/08/20 04:28:25;;;;;;;13.20;5.57;;;;;;;25.40;54.10;98482.59;6191604;23;20168;-93
2022/08/20 04:30:53;;;;;;;6.80;4.37;;;;;;;25.46;53.23;98484.56;6191435;23;20309;-94
2022/08/20 04:33:23;;;;;;;8.03;4.67;;;;;;;25.46;53.35;98485.41;6191564;23;20207;-94
2022/08/20 04:35:48;;;;;;;8.73;4.63;;;;;;;25.53;53.35;98480.91;6192337;23;20138;-94
2022/08/20 04:38:17;;;;;;;6.50;4.33;;;;;;;25.63;53.25;98477.91;6191782;23;20154;-92
2022/08/20 04:40:57;;;;;;;7.97;4.07;;;;;;;25.74;53.18;98479.25;6191746;23;20166;-94
2022/08/20 04:43:32;;;;;;;7.90;4.87;;;;;;;25.80;53.00;98475.81;6191486;23;20553;-95
2022/08/20 04:46:00;;;;;;;7.33;4.90;;;;;;;25.91;52.39;98476.13;6192215;23;20252;-94
2022/08/20 04:48:27;;;;;;;10.97;5.00;;;;;;;25.99;52.81;98476.00;6191477;23;20153;-94
2022/08/20 04:50:54;;;;;;;7.63;4.50;;;;;;;26.07;52.92;98481.19;6191756;23;20157;-93
2022/08/20 04:53:23;;;;;;;9.60;5.03;;;;;;;26.08;52.89;98482.88;6218086;23;20150;-95
2022/08/20 04:55:51;;;;;;;7.63;4.87;;;;;;;26.02;53.05;98483.63;6191506;23;20158;-94
2022/08/20 04:58:26;;;;;;;10.40;4.90;;;;;;;26.11;53.92;98485.16;6190879;23;20154;-94
2022/08/20 05:00:55;;;;;;;6.50;4.20;;;;;;;26.25;53.36;98478.09;6191792;23;20148;-93
2022/08/20 05:03:22;;;;;;;9.20;4.67;;;;;;;26.38;53.10;98477.34;6191588;23;20488;-94
2022/08/20 05:05:49;;;;;;;8.87;4.57;;;;;;;26.48;53.38;98475.13;6191501;23;20196;-94
2022/08/20 05:08:16;;;;;;;8.07;3.87;;;;;;;26.63;53.23;98473.13;6191319;23;20154;-94
2022/08/20 05:10:43;;;;;;;10.90;4.17;;;;;;;26.80;52.60;98477.22;6191649;23;20161;-93
2022/08/20 05:13:09;;;;;;;8.07;3.93;;;;;;;26.90;52.62;98477.66;6191396;23;20158;-94
2022/08/20 05:15:37;;;;;;;7.60;4.63;;;;;;;27.00;52.44;98479.97;6191365;23;20231;-94
2022/08/20 05:18:06;;;;;;;10.45;4.90;;;;;;;27.11;52.37;98480.25;6191366;23;20597;-94
2022/08/20 05:20:34;;;;;;;7.65;3.72;;;;;;;27.25;52.22;98487.31;6191256;23;20651;-93
2022/08/20 05:23:01;;;;;;;9.57;4.55;;;;;;;27.36;52.41;98486.72;6191064;23;20158;-93
2022/08/20 05:25:28;;;;;;;12.65;4.20;;;;;;;27.49;52.38;98485.16;6192939;23;20616;-95
2022/08/20 05:28:11;;;;;;;9.27;4.15;;;;;;;27.64;52.27;98491.19;6191255;23;20189;-95
2022/08/20 05:30:39;;;;;;;7.93;4.20;;;;;;;27.79;51.24;98483.75;6191350;23;20173;-96
2022/08/20 05:33:07;;;;;;;10.13;4.63;;;;;;;27.90;51.61;98478.59;6192159;23;20593;-95
2022/08/20 05:35:37;;;;;;;7.85;3.90;;;;;;;28.01;52.05;98477.13;6195686;23;20154;-95
2022/08/20 05:38:04;;;;;;;8.35;5.18;;;;;;;28.09;51.57;98484.22;6191318;23;20149;-93
2022/08/20 05:40:30;;;;;;;10.57;4.25;;;;;;;28.13;51.34;98480.88;6190867;23;20149;-93
2022/08/20 05:42:55;;;;;;;8.90;4.40;;;;;;;28.25;51.36;98483.78;6190973;23;20176;-94
2022/08/20 05:45:21;;;;;;;10.20;4.90;;;;;;;28.26;51.30;98474.66;6190930;23;20252;-93
2022/08/20 05:47:47;;;;;;;10.57;7.20;;;;;;;28.34;51.42;98479.81;6190690;23;20167;-95
2022/08/20 05:50:14;;;;;;;14.07;6.82;;;;;;;28.51;51.49;98487.25;6191087;23;20162;-93
2022/08/20 05:52:40;;;;;;;6.93;4.88;;;;;;;28.69;51.52;98486.66;6191102;23;20597;-94
2022/08/20 05:55:08;;;;;;;7.53;4.00;;;;;;;28.75;51.51;98479.59;6196004;23;20161;-87
2022/08/20 05:57:36;;;;;;;8.27;4.43;;;;;;;28.86;51.60;98487.00;6189723;23;20153;-87
2022/08/20 06:00:07;;;;;;;7.40;4.63;;;;;;;29.10;50.87;98487.13;6216738;23;20224;-87
2022/08/20 06:05:19;;;;;;;11.30;4.28;;;;;;;29.47;49.08;98487.38;6215816;23;20204;-88
2022/08/20 06:07:49;;;;;;;11.48;4.35;;;;;;;29.66;48.99;98491.84;6189441;23;20157;-87
2022/08/20 06:10:16;;;;;;;9.93;3.67;;;;;;;29.85;48.77;98488.19;6190408;23;20652;-87
2022/08/20 06:12:44;;;;;;;11.65;4.10;;;;;;;29.94;48.22;98484.19;6217555;23;20253;-87
2022/08/20 06:15:11;;;;;;;6.65;3.95;;;;;;;29.93;48.12;98490.63;6192187;23;20149;-87
2022/08/20 06:17:39;;;;;;;8.27;4.45;;;;;;;30.08;47.48;98482.22;6192869;23;20590;-87
2022/08/20 06:20:08;;;;;;;9.50;4.32;;;;;;;30.28;47.17;98488.28;6219724;23;20233;-87
2022/08/20 06:22:34;;;;;;;11.15;4.07;;;;;;;30.51;47.11;98482.25;6192881;23;20153;-88
2022/08/20 06:25:00;;;;;;;7.95;4.22;;;;;;;30.79;46.74;98477.19;6193360;23;20154;-94
2022/08/20 06:27:29;;;;;;;10.20;4.28;;;;;;;31.09;46.40;98480.78;6191053;23;20182;-88
2022/08/20 06:30:26;;;;;;;;;;;;;;;;;;;;;
2022/08/20 06:32:55;;;;;;;7.20;4.85;;;;;;;31.93;43.53;98472.53;6217815;23;20236;-87
2022/08/20 06:35:22;;;;;;;10.30;4.35;;;;;;;32.48;42.64;98474.94;6216078;23;20149;-88
2022/08/20 06:37:51;;;;;;;8.73;5.25;;;;;;;32.90;41.68;98476.47;6188222;23;20170;-87
2022/08/20 06:40:33;;;;;;;7.15;4.10;;;;;;;33.47;40.23;98473.81;6190099;23;20154;-88
2022/08/20 06:43:24;;;;;;;7.78;4.20;;;;;;;34.03;38.33;98479.22;6215194;23;20145;-88
2022/08/20 06:46:06;;;;;;;;;;;;;;;;;;;;;
2022/08/20 06:48:32;;;;;;;7.55;4.70;;;;;;;34.89;35.70;98483.28;6214684;23;20221;-88
2022/08/20 06:50:57;;;;;;;6.65;4.28;;;;;;;35.26;36.21;98478.88;6215322;23;20170;-88
2022/08/20 06:53:30;;;;;;;11.65;4.25;;;;;;;35.44;34.50;98477.72;6187347;23;20625;-88
2022/08/20 06:55:57;;;;;;;6.55;3.53;;;;;;;35.75;33.68;98483.25;6213873;23;20213;-88
2022/08/20 06:58:24;;;;;;;8.75;4.00;;;;;;;35.99;34.15;98474.72;6189214;23;20538;-88
2022/08/20 07:00:49;;;;;;;6.03;4.00;;;;;;;36.28;33.69;98470.63;6188688;23;20186;-88
2022/08/20 07:03:15;;;;;;;5.78;3.65;;;;;;;36.57;32.24;98471.97;6214887;23;20157;-88
2022/08/20 07:05:43;;;;;;;7.72;3.95;;;;;;;36.65;32.57;98470.63;6215939;23;20184;-88
2022/08/20 07:08:13;;;;;;;6.25;3.72;;;;;;;36.74;32.56;98469.84;6215649;23;20146;-89
2022/08/20 07:10:41;;;;;;;6.63;3.58;;;;;;;36.96;32.14;98464.28;6216025;23;20138;-87
2022/08/20 07:13:08;;;;;;;5.63;3.33;;;;;;;37.13;31.81;98461.34;6215653;23;20146;-88
2022/08/20 07:15:33;;;;;;;7.25;4.03;;;;;;;37.29;31.90;98463.03;6215948;23;20229;-88
2022/08/20 07:18:01;;;;;;;8.05;4.30;;;;;;;37.30;31.97;98456.47;6215510;23;20228;-89
2022/08/20 07:20:27;;;;;;;6.53;4.00;;;;;;;37.33;31.90;98461.41;6189428;23;20273;-88
2022/08/20 07:22:53;;;;;;;7.45;3.92;;;;;;;37.44;31.25;98449.44;6215499;23;20150;-89
2022/08/20 07:25:20;;;;;;;10.07;3.90;;;;;;;37.50;31.16;98451.09;6189169;23;20231;-89
2022/08/20 07:27:47;;;;;;;8.57;4.00;;;;;;;37.60;31.80;98451.09;6190604;23;20540;-89
2022/08/20 07:33:01;;;;;;;9.23;3.80;;;;;;;37.57;31.89;98454.38;6215574;23;20169;-88
2022/08/20 07:35:26;;;;;;;6.72;3.70;;;;;;;37.46;30.48;98449.97;6215845;23;20145;-88
2022/08/20 07:37:53;;;;;;;5.68;3.40;;;;;;;37.48;32.03;98447.78;6189192;23;20158;-88
2022/08/20 07:40:32;;;;;;;5.38;3.35;;;;;;;37.67;30.94;98451.66;6190262;23;20166;-89
2022/08/20 07:43:01;;;;;;;6.80;3.67;;;;;;;37.67;31.25;98445.34;6189332;23;20150;-89
2022/08/20 07:45:29;;;;;;;5.78;3.13;;;;;;;37.73;32.07;98449.75;6189505;23;20150;-88
2022/08/20 07:48:04;;;;;;;11.95;3.45;;;;;;;38.09;31.89;98440.47;6215593;23;20177;-88
2022/08/20 07:50:31;;;;;;;5.50;3.55;;;;;;;38.26;30.47;98437.47;6215487;23;20134;-89
2022/08/20 07:53:00;;;;;;;4.82;2.78;;;;;;;37.81;30.46;98450.03;6189283;23;20184;-88
2022/08/20 07:55:26;;;;;;;7.05;3.00;;;;;;;37.86;31.69;98441.84;6215794;23;20150;-87
2022/08/20 07:57:53;;;;;;;5.80;2.90;;;;;;;38.03;31.07;98438.81;6215620;23;20173;-88
2022/08/20 08:00:21;;;;;;;6.53;2.88;;;;;;;38.27;31.09;98425.38;6216410;23;20190;-88
2022/08/20 08:02:47;;;;;;;7.07;3.30;;;;;;;38.28;30.71;98427.03;6215441;23;20169;-89
2022/08/20 08:05:14;;;;;;;8.02;3.38;;;;;;;38.48;29.91;98421.53;6188952;23;20150;-89
2022/08/20 08:07:40;;;;;;;4.20;2.65;;;;;;;38.59;30.39;98420.44;6215404;23;20138;-88
2022/08/20 08:10:10;;;;;;;5.20;2.80;;;;;;;38.77;29.83;98419.84;6215740;23;20146;-88
2022/08/20 08:12:41;;;;;;;4.55;2.63;;;;;;;38.79;29.39;98409.41;6215318;23;20504;-90
2022/08/20 08:15:11;;;;;;;5.60;3.08;;;;;;;38.73;29.59;98411.31;6215438;23;20200;-90
2022/08/20 08:17:37;;;;;;;6.60;2.50;;;;;;;38.86;29.08;98411.88;6189014;23;20154;-88
2022/08/20 08:20:05;;;;;;;4.72;2.88;;;;;;;38.86;29.44;98409.13;6189129;23;20215;-88
2022/08/20 08:22:33;;;;;;;5.53;2.72;;;;;;;38.59;29.19;98401.25;6215956;23;20157;-89
2022/08/20 08:25:01;;;;;;;5.57;2.83;;;;;;;38.82;28.47;98397.06;6215336;23;20146;-88
2022/08/20 08:27:33;;;;;;;4.40;2.13;;;;;;;39.06;28.83;98387.91;6215120;23;20188;-88
2022/08/20 08:29:59;;;;;;;3.88;2.38;;;;;;;38.92;28.60;98392.38;6189069;23;20267;-88
2022/08/20 08:32:26;;;;;;;5.40;3.13;;;;;;;38.29;28.91;98390.38;6216537;23;20275;-88
2022/08/20 08:34:52;;;;;;;4.97;2.38;;;;;;;38.58;28.69;98380.41;6217385;23;20235;-89
2022/08/20 08:37:17;;;;;;;3.40;2.17;;;;;;;38.88;28.44;98380.34;6217346;23;20578;-88
2022/08/20 08:39:43;;;;;;;13.15;3.65;;;;;;;38.95;27.63;98375.38;6190805;23;20161;-88
2022/08/20 08:42:21;;;;;;;5.18;2.58;;;;;;;39.03;27.74;98377.50;6190878;23;20153;-89
2022/08/20 08:44:47;;;;;;;5.80;3.97;;;;;;;39.28;27.80;98374.63;6217318;23;20133;-89
2022/08/20 08:47:33;;;;;;;12.38;6.68;;;;;;;39.45;27.67;98363.28;6190587;23;20331;-88
2022/08/20 08:50:01;;;;;;;6.32;3.45;;;;;;;39.51;27.66;98362.16;6217312;23;20260;-88
2022/08/20 08:52:30;;;;;;;7.00;4.15;;;;;;;39.51;27.59;98359.41;6217622;23;20201;-88
2022/08/20 08:54:59;;;;;;;6.07;3.60;;;;;;;39.69;26.78;98357.91;6190553;23;20535;-88
2022/08/20 08:57:25;;;;;;;4.85;2.72;;;;;;;39.66;27.04;98358.47;6216843;23;20547;-88
2022/08/20 08:59:58;;;;;;;7.85;3.10;;;;;;;39.62;27.61;98355.50;6216823;23;20177;-89
2022/08/20 09:02:25;;;;;;;8.27;2.60;;;;;;;39.75;27.28;98351.28;6190680;23;20528;-89
2022/08/20 09:04:54;;;;;;;4.30;2.30;;;;;;;39.66;26.97;98351.06;6217182;23;20150;-88
2022/08/20 09:07:22;;;;;;;4.63;2.40;;;;;;;39.62;27.16;98355.50;6217375;23;20181;-87
2022/08/20 09:09:47;;;;;;;5.53;2.33;;;;;;;39.98;26.85;98350.50;6216968;23;20154;-87
2022/08/20 09:12:17;;;;;;;4.25;2.65;;;;;;;40.13;26.49;98347.63;6215833;23;20292;-89
2022/08/20 09:14:45;;;;;;;7.85;2.67;;;;;;;40.07;26.05;98348.00;6190462;23;20164;-88
2022/08/20 09:17:10;;;;;;;3.92;2.30;;;;;;;40.05;25.67;98353.75;6216474;23;20224;-87
2022/08/20 09:19:36;;;;;;;4.43;2.53;;;;;;;39.73;26.52;98346.06;6187706;23;20287;-88
2022/08/20 09:22:10;;;;;;;5.45;2.63;;;;;;;40.10;26.37;98341.91;6187987;23;20157;-88
2022/08/20 09:24:35;;;;;;;4.60;2.33;;;;;;;39.93;25.97;98336.84;6214176;23;20153;-88
2022/08/20 09:27:01;;;;;;;5.38;2.22;;;;;;;39.72;25.18;98340.88;6214105;23;20173;-88
2022/08/20 09:29:26;;;;;;;4.95;2.05;;;;;;;39.77;26.29;98338.91;6186910;23;20601;-88
2022/08/20 09:32:09;;;;;;;5.63;2.25;;;;;;;39.62;25.89;98335.47;6186924;23;20176;-88
2022/08/20 09:34:39;;;;;;;4.07;2.22;;;;;;;39.75;26.85;98332.06;6212834;23;20141;-88
2022/08/20 09:37:05;;;;;;;4.05;2.20;;;;;;;39.46;25.46;98342.16;6213927;23;20141;-87
2022/08/20 09:39:31;;;;;;;4.30;2.00;;;;;;;39.14;26.08;98340.72;6214126;23;20297;-88
2022/08/20 09:42:10;;;;;;;6.55;2.13;;;;;;;39.60;25.25;98326.69;6213959;23;20180;-88
2022/08/20 09:44:36;;;;;;;3.40;2.20;;;;;;;39.33;25.92;98331.84;6214390;23;20211;-88
2022/08/20 09:47:02;;;;;;;5.00;2.08;;;;;;;39.83;24.67;98325.97;6216528;23;20219;-88
2022/08/20 09:49:28;;;;;;;6.03;2.58;;;;;;;40.10;23.90;98320.75;6216060;23;20145;-88
2022/08/20 09:51:53;;;;;;;4.28;1.90;;;;;;;40.24;25.29;98315.38;6216507;23;20146;-88
2022/08/20 09:54:21;;;;;;;4.13;2.08;;;;;;;39.94;25.07;98321.97;6214019;23;20146;-88
2022/08/20 09:56:48;;;;;;;4.60;1.70;;;;;;;40.11;25.33;98313.34;6188554;23;20161;-87
2022/08/20 09:59:14;;;;;;;3.35;2.03;;;;;;;40.25;24.22;98317.84;6215577;23;20169;-88
2022/08/20 10:01:44;;;;;;;4.15;2.00;;;;;;;40.30;24.61;98311.47;6188734;23;20162;-88
2022/08/20 10:04:11;;;;;;;3.35;1.80;;;;;;;40.05;24.25;98307.09;6215418;23;20150;-89
2022/08/20 10:06:41;;;;;;;4.03;2.15;;;;;;;40.16;24.60;98308.63;6215450;23;20212;-88
2022/08/20 10:09:08;;;;;;;6.70;2.85;;;;;;;40.56;25.14;98304.59;6216170;23;20150;-87
2022/08/20 10:11:33;;;;;;;2.83;1.85;;;;;;;40.72;25.26;98303.28;6215896;23;20538;-89
2022/08/20 10:14:01;;;;;;;4.07;2.53;;;;;;;40.87;23.87;98296.72;6216356;23;20183;-88
2022/08/20 10:16:38;;;;;;;3.70;1.85;;;;;;;41.08;24.10;98296.19;6215619;23;20145;-88
2022/08/20 10:19:05;;;;;;;4.07;1.70;;;;;;;41.25;23.48;98298.38;6215219;23;20545;-88
2022/08/20 10:21:34;;;;;;;5.25;2.05;;;;;;;41.31;23.23;98282.63;6215641;23;20476;-87
2022/08/20 10:23:59;;;;;;;5.18;2.67;;;;;;;41.47;23.47;98290.34;6215671;23;20157;-87
2022/08/20 10:26:26;;;;;;;2.40;1.83;;;;;;;41.47;22.98;98293.09;6189339;23;20500;-89
2022/08/20 10:28:54;;;;;;;3.88;2.05;;;;;;;41.67;22.65;98284.47;6189006;23;20162;-88
2022/08/20 10:31:21;;;;;;;2.65;1.60;;;;;;;41.72;21.65;98285.56;6184331;23;20260;-87
2022/08/20 10:33:48;;;;;;;4.43;1.80;;;;;;;41.82;21.72;98285.34;6183932;23;20162;-88
2022/08/20 10:36:16;;;;;;;3.33;1.75;;;;;;;41.88;22.04;98268.44;6184747;23;20509;-88
2022/08/20 10:38:43;;;;;;;6.70;1.98;;;;;;;41.74;22.17;98272.28;6183274;23;20549;-88
2022/08/20 10:41:09;;;;;;;2.70;1.73;;;;;;;41.97;21.67;98261.09;6185675;23;20157;-88
2022/08/20 10:43:35;;;;;;;3.03;1.75;;;;;;;41.63;21.78;98260.63;6185790;23;20478;-87
2022/08/20 10:46:00;;;;;;;3.38;2.15;;;;;;;41.44;21.94;98254.34;6184512;23;20186;-87
2022/08/20 10:48:26;;;;;;;3.45;1.67;;;;;;;41.37;22.22;98264.94;6185433;23;20150;-88
2022/08/20 10:50:52;;;;;;;5.00;2.10;;;;;;;41.71;21.77;98256.34;6186369;23;20150;-87
2022/08/20 10:53:17;;;;;;;4.25;1.77;;;;;;;41.29;22.07;98258.16;6185745;23;20157;-88
2022/08/20 10:55:43;;;;;;;3.83;1.88;;;;;;;41.55;21.45;98247.56;6186506;23;20618;-87
2022/08/20 10:58:09;;;;;;;5.13;2.00;;;;;;;41.87;21.82;98246.72;6184531;23;20161;-87
2022/08/20 11:00:35;;;;;;;6.93;2.45;;;;;;;41.83;21.59;98243.75;6159866;23;20155;-87
2022/08/20 11:03:01;;;;;;;3.63;2.30;;;;;;;42.13;21.53;98236.84;6185967;23;20450;-87
2022/08/20 11:05:27;;;;;;;4.97;2.30;;;;;;;41.98;22.51;98228.88;6185460;23;20229;-88
2022/08/20 11:07:54;;;;;;;3.65;1.90;;;;;;;41.90;22.20;98237.84;6159480;23;20493;-88
2022/08/20 11:10:20;;;;;;;4.18;2.08;;;;;;;41.46;21.57;98239.16;6185480;23;20160;-87
2022/08/20 11:12:46;;;;;;;3.05;1.38;;;;;;;41.54;22.27;98227.47;6185544;23;20229;-87
2022/08/20 11:15:13;;;;;;;4.18;1.90;;;;;;;41.32;22.36;98223.75;6185499;23;20574;-87
2022/08/20 11:17:40;;;;;;;3.85;1.83;;;;;;;41.62;22.08;98214.94;6185119;23;20146;-88
2022/08/20 11:20:07;;;;;;;3.45;1.67;;;;;;;41.64;22.25;98215.47;6185015;23;20147;-88
2022/08/20 11:22:33;;;;;;;3.08;1.77;;;;;;;40.84;22.93;98214.84;6159213;23;20469;-88
2022/08/20 11:24:59;;;;;;;3.60;2.25;;;;;;;41.54;21.89;98194.44;6185302;23;20585;-89
2022/08/20 11:27:26;;;;;;;4.80;2.35;;;;;;;41.64;22.89;98205.25;6185091;23;20245;-87
2022/08/20 11:29:51;;;;;;;2.80;1.50;;;;;;;41.30;21.52;98210.31;6185012;23;20150;-87
2022/08/20 11:32:17;;;;;;;3.25;1.70;;;;;;;41.11;21.99;98214.19;6185398;23;20614;-88
2022/08/20 11:34:43;;;;;;;2.92;1.70;;;;;;;41.45;21.97;98207.28;6185212;23;20151;-87
2022/08/20 11:37:09;;;;;;;7.32;2.20;;;;;;;41.72;22.11;98202.97;6185140;23;20153;-88
2022/08/20 11:39:34;;;;;;;3.30;1.52;;;;;;;41.52;21.33;98207.69;6159048;23;20481;-88
2022/08/20 11:42:01;;;;;;;5.05;2.00;;;;;;;41.57;21.00;98204.03;6185281;23;20209;-88
2022/08/20 11:44:26;;;;;;;2.63;1.60;;;;;;;41.65;20.96;98193.13;6185251;23;20154;-88